Time;durP1;ratioP1;P1;durP2;ratioP2;P2;SDS_P1;SDS_P2;PMS_P1;PMS_P2;Temp;Humidity;BMP_temperature;BMP_pressure;BME280_temperature;BME280_humidity;BME280_pressure;Samples;Min_cycle;Max_cycle;Signal;HPM_P1;HPM_P2
2021/05/22 00:01:29;;;;;;;;;;;;;;;12.19;66.39;91904.38;2075720;69;20049;-86
2021/05/22 00:03:55;;;;;;;;;;;;;;;12.15;66.22;91901.38;2075529;69;20084;-88
2021/05/22 00:06:21;;;;;;;;;;;;;;;12.10;65.93;91896.94;2075927;69;20068;-88
2021/05/22 00:08:47;;;;;;;;;;;;;;;12.05;66.45;91907.31;2075764;69;20153;-88
2021/05/22 00:11:12;;;;;;;;;;;;;;;12.13;66.10;91902.00;2076024;69;20153;-86
2021/05/22 00:13:38;;;;;;;;;;;;;;;12.20;65.91;91900.91;2075879;69;20136;-88
2021/05/22 00:16:04;;;;;;;;;;;;;;;12.23;66.98;91909.44;2075726;69;20049;-86
2021/05/22 00:18:29;;;;;;;;;;;;;;;12.26;67.10;91903.25;2075743;69;20164;-86
2021/05/22 00:20:57;;;;;;;;;;;;;;;12.15;66.77;91901.38;2075792;69;20550;-86
2021/05/22 00:23:22;;;;;;;;;;;;;;;12.13;67.43;91901.28;2075792;69;20415;-87
2021/05/22 00:25:48;;;;;;;;;;;;;;;12.05;66.96;91904.50;2075899;69;20051;-87
2021/05/22 00:28:13;;;;;;;;;;;;;;;12.10;66.32;91896.94;2075942;69;20056;-86
2021/05/22 00:30:39;;;;;;;;;;;;;;;12.17;66.84;91899.34;2075746;69;20059;-87
2021/05/22 00:33:04;;;;;;;;;;;;;;;12.06;67.32;91896.75;2076115;69;20064;-88
2021/05/22 00:35:29;;;;;;;;;;;;;;;12.11;67.47;91909.66;2071968;69;20052;-87
2021/05/22 00:37:55;;;;;;;;;;;;;;;12.04;66.97;91917.13;2075789;69;20048;-89
2021/05/22 00:40:21;;;;;;;;;;;;;;;12.02;66.74;91919.16;2075685;69;20048;-86
2021/05/22 00:42:46;;;;;;;;;;;;;;;12.11;66.54;91926.59;2072083;69;20205;-89
2021/05/22 00:45:12;;;;;;;;;;;;;;;12.15;66.60;91926.75;2075657;69;20433;-85
2021/05/22 00:47:41;;;;;;;;;;;;;;;12.05;66.87;91934.78;2075945;69;20048;-87
2021/05/22 00:50:08;;;;;;;;;;;;;;;11.96;65.90;91947.81;2076114;69;20414;-88
2021/05/22 00:52:34;;;;;;;;;;;;;;;11.91;66.81;91969.47;2075864;69;20494;-87
2021/05/22 00:55:00;;;;;;;;;;;;;;;11.49;62.29;92004.16;2075894;69;20049;-88
2021/05/22 00:57:25;;;;;;;;;;;;;;;11.24;60.59;92033.31;2071848;69;20048;-87
2021/05/22 00:59:52;;;;;;;;;;;;;;;11.10;62.23;92065.06;2075753;69;20048;-87
2021/05/22 01:02:22;;;;;;;;;;;;;;;10.40;64.38;92085.47;2075538;69;20064;-86
2021/05/22 01:04:47;;;;;;;;;;;;;;;10.85;65.45;92113.09;2072179;69;20067;-89
2021/05/22 01:07:13;;;;;;;;;;;;;;;10.74;66.33;92125.22;2075611;69;20060;-88
2021/05/22 01:09:39;;;;;;;;;;;;;;;11.15;66.33;92150.50;2075475;69;20078;-87
2021/05/22 01:12:06;;;;;;;;;;;;;;;10.87;68.68;92169.53;2075517;69;20048;-90
2021/05/22 01:14:42;;;;;;;;;;;;;;;10.86;69.86;92184.97;2075492;69;20135;-90
2021/05/22 01:17:10;;;;;;;;;;;;;;;10.67;71.83;92186.84;2075531;69;20221;-89
2021/05/22 01:19:35;;;;;;;;;;;;;;;10.76;71.64;92193.59;2071686;69;20098;-87
2021/05/22 01:22:01;;;;;;;;;;;;;;;10.71;72.40;92203.19;2072114;69;20052;-86
2021/05/22 01:24:29;;;;;;;;;;;;;;;10.59;71.77;92217.38;2076923;69;20087;-86
2021/05/22 01:26:55;;;;;;;;;;;;;;;10.66;71.44;92221.94;2075838;69;20044;-86
2021/05/22 01:29:21;;;;;;;;;;;;;;;10.37;72.24;92213.38;2075627;69;20047;-87
2021/05/22 01:31:46;;;;;;;;;;;;;;;10.51;70.84;92219.03;2075583;69;20056;-87
2021/05/22 01:34:12;;;;;;;;;;;;;;;10.37;71.23;92227.44;2075183;69;20430;-87
2021/05/22 01:36:37;;;;;;;;;;;;;;;10.33;71.56;92222.31;2075339;69;20473;-87
2021/05/22 01:39:03;;;;;;;;;;;;;;;10.34;70.36;92218.13;2075572;69;20197;-88
2021/05/22 01:41:28;;;;;;;;;;;;;;;10.36;71.91;92212.63;2075694;69;20483;-86
2021/05/22 01:43:56;;;;;;;;;;;;;;;10.01;73.69;92207.19;2075542;69;20048;-86
2021/05/22 01:46:23;;;;;;;;;;;;;;;10.17;72.89;92202.47;2075857;69;20087;-86
2021/05/22 01:48:53;;;;;;;;;;;;;;;10.22;72.22;92200.59;2075821;69;20415;-86
2021/05/22 01:51:24;;;;;;;;;;;;;;;10.27;71.58;92199.47;2075728;69;20052;-87
2021/05/22 01:54:07;;;;;;;;;;;;;;;10.23;72.28;92185.16;2075618;69;20140;-88
2021/05/22 01:56:33;;;;;;;;;;;;;;;10.12;72.86;92177.53;2075486;69;20052;-86
2021/05/22 01:58:59;;;;;;;;;;;;;;;10.00;73.33;92171.25;2075553;69;20113;-86
2021/05/22 02:01:26;;;;;;;;;;;;;;;9.64;73.76;92163.00;2075462;69;20109;-86
2021/05/22 02:04:03;;;;;;;;;;;;;;;9.85;74.22;92175.34;2075593;69;20055;-88
2021/05/22 02:06:30;;;;;;;;;;;;;;;9.92;73.23;92186.31;2075398;69;20060;-87
2021/05/22 02:08:58;;;;;;;;;;;;;;;9.09;74.27;92193.63;2075333;69;20498;-87
2021/05/22 02:11:26;;;;;;;;;;;;;;;9.33;73.98;92216.75;2075680;69;20044;-88
2021/05/22 02:13:52;;;;;;;;;;;;;;;9.67;71.58;92209.56;2071698;69;20055;-88
2021/05/22 02:16:21;;;;;;;;;;;;;;;9.57;72.38;92197.00;2075646;69;20512;-85
2021/05/22 02:18:46;;;;;;;;;;;;;;;9.84;72.08;92211.19;2071871;69;20399;-86
2021/05/22 02:21:15;;;;;;;;;;;;;;;9.70;72.92;92216.00;2075717;69;20055;-86
2021/05/22 02:23:46;;;;;;;;;;;;;;;9.64;71.66;92219.22;2075549;69;20045;-87
2021/05/22 02:26:12;;;;;;;;;;;;;;;9.74;71.92;92219.06;2075364;69;20052;-92
2021/05/22 02:28:41;;;;;;;;;;;;;;;9.88;72.86;92207.88;2075050;69;20048;-88
2021/05/22 02:31:07;;;;;;;;;;;;;;;9.45;74.20;92218.81;2074967;69;20060;-88
2021/05/22 02:33:33;;;;;;;;;;;;;;;9.16;74.67;92222.78;2071291;69;20068;-86
2021/05/22 02:35:59;;;;;;;;;;;;;;;9.42;73.95;92226.38;2074964;69;20108;-88
2021/05/22 02:38:26;;;;;;;;;;;;;;;9.26;73.94;92231.09;2074956;69;20063;-87
2021/05/22 02:40:53;;;;;;;;;;;;;;;9.61;74.04;92236.56;2075044;69;20545;-90
2021/05/22 02:43:19;;;;;;;;;;;;;;;9.75;73.62;92234.56;2075211;69;20052;-92
2021/05/22 02:45:46;;;;;;;;;;;;;;;9.78;73.59;92230.53;2052026;69;20647;-91
2021/05/22 02:48:14;;;;;;;;;;;;;;;9.79;73.99;92217.94;2052574;70;20136;-92
2021/05/22 02:50:40;;;;;;;;;;;;;;;9.83;74.10;92232.22;2052522;70;20201;-93
2021/05/22 02:53:09;;;;;;;;;;;;;;;9.62;75.51;92240.84;2053682;70;20071;-90
2021/05/22 02:55:34;;;;;;;;;;;;;;;9.62;75.26;92238.78;2054889;70;20055;-93
2021/05/22 02:58:00;;;;;;;;;;;;;;;9.68;74.72;92255.97;2054560;70;20039;-89
2021/05/22 03:00:25;;;;;;;;;;;;;;;9.59;75.54;92262.50;2049114;70;20456;-87
2021/05/22 03:02:52;;;;;;;;;;;;;;;9.68;75.49;92266.50;2052749;70;20158;-88
2021/05/22 03:05:17;;;;;;;;;;;;;;;9.58;75.56;92254.69;2052485;70;20073;-90
2021/05/22 03:07:44;;;;;;;;;;;;;;;9.62;75.18;92255.66;2052569;70;20059;-88
2021/05/22 03:10:10;;;;;;;;;;;;;;;9.39;76.11;92258.50;2052458;70;20054;-92
2021/05/22 03:12:36;;;;;;;;;;;;;;;9.34;76.70;92256.81;2051844;70;20114;-87
2021/05/22 03:15:03;;;;;;;;;;;;;;;9.58;75.86;92244.19;2054918;70;20065;-91
2021/05/22 03:17:29;;;;;;;;;;;;;;;9.57;75.44;92245.50;2052704;70;20050;-89
2021/05/22 03:19:54;;;;;;;;;;;;;;;9.57;76.24;92247.59;2052524;70;20062;-88
2021/05/22 03:22:20;;;;;;;;;;;;;;;9.60;75.78;92237.94;2052327;70;20183;-90
2021/05/22 03:24:45;;;;;;;;;;;;;;;9.42;75.56;92240.44;2052515;70;20459;-90
2021/05/22 03:27:11;;;;;;;;;;;;;;;9.63;75.08;92233.91;2052482;70;20057;-92
2021/05/22 03:29:36;;;;;;;;;;;;;;;9.74;74.54;92227.47;2052553;70;20135;-89
2021/05/22 03:32:02;;;;;;;;;;;;;;;9.62;75.85;92227.53;2052440;70;20055;-89
2021/05/22 03:34:27;;;;;;;;;;;;;;;9.63;75.50;92239.50;2052428;70;20062;-93
2021/05/22 03:36:53;;;;;;;;;;;;;;;9.65;75.10;92243.16;2052491;70;20164;-91
2021/05/22 03:39:18;;;;;;;;;;;;;;;9.62;76.02;92232.41;2052400;70;20082;-88
2021/05/22 03:41:44;;;;;;;;;;;;;;;9.53;76.06;92231.25;2052461;70;20154;-89
2021/05/22 03:44:10;;;;;;;;;;;;;;;9.53;76.27;92230.50;2057069;69;20066;-88
2021/05/22 03:46:35;;;;;;;;;;;;;;;9.47;75.99;92230.88;2075269;69;20078;-88
2021/05/22 03:49:01;;;;;;;;;;;;;;;9.56;75.46;92246.13;2075378;69;20135;-87
2021/05/22 03:51:26;;;;;;;;;;;;;;;9.63;74.79;92245.88;2075538;69;20056;-89
2021/05/22 03:53:52;;;;;;;;;;;;;;;9.60;74.95;92241.47;2075301;69;20060;-90
2021/05/22 03:56:17;;;;;;;;;;;;;;;9.60;75.11;92235.84;2075307;69;20056;-93
2021/05/22 03:58:43;;;;;;;;;;;;;;;9.52;75.97;92246.63;2075389;69;20067;-87
2021/05/22 04:01:08;;;;;;;;;;;;;;;9.40;76.12;92238.25;2075379;69;20048;-90
2021/05/22 04:03:34;;;;;;;;;;;;;;;9.22;75.83;92245.63;2075495;69;20083;-91
2021/05/22 04:05:59;;;;;;;;;;;;;;;9.28;75.77;92253.66;2075414;69;20143;-88
2021/05/22 04:08:24;;;;;;;;;;;;;;;9.45;75.78;92258.16;2075462;69;20116;-90
2021/05/22 04:10:50;;;;;;;;;;;;;;;9.55;75.74;92259.44;2075624;69;20501;-92
2021/05/22 04:13:16;;;;;;;;;;;;;;;9.55;76.36;92265.06;2075506;69;20072;-93
2021/05/22 04:15:41;;;;;;;;;;;;;;;9.62;76.02;92252.09;2075452;69;20148;-93
2021/05/22 04:18:09;;;;;;;;;;;;;;;9.50;76.16;92260.56;2075581;69;20055;-92
2021/05/22 04:20:35;;;;;;;;;;;;;;;9.51;76.52;92262.03;2075543;69;20044;-90
2021/05/22 04:23:00;;;;;;;;;;;;;;;9.53;76.19;92252.97;2075526;69;20036;-92
2021/05/22 04:25:25;;;;;;;;;;;;;;;9.51;75.90;92250.06;2075444;69;20449;-91
2021/05/22 04:27:51;;;;;;;;;;;;;;;9.44;76.87;92240.56;2071852;69;20061;-87
2021/05/22 04:30:17;;;;;;;;;;;;;;;9.57;76.74;92245.50;2075442;69;20243;-92
2021/05/22 04:32:42;;;;;;;;;;;;;;;9.69;76.16;92259.53;2071904;69;20474;-88
2021/05/22 04:35:08;;;;;;;;;;;;;;;9.74;76.06;92263.31;2075566;69;20064;-86
2021/05/22 04:37:33;;;;;;;;;;;;;;;9.63;76.36;92257.09;2075579;69;20056;-90
2021/05/22 04:39:59;;;;;;;;;;;;;;;9.60;76.92;92257.59;2075614;69;20198;-89
2021/05/22 04:42:24;;;;;;;;;;;;;;;9.72;76.51;92266.00;2075483;69;20055;-87
2021/05/22 04:44:50;;;;;;;;;;;;;;;9.73;76.16;92262.56;2075622;69;20054;-91
2021/05/22 04:47:15;;;;;;;;;;;;;;;9.62;76.39;92260.50;2075474;69;20494;-92
2021/05/22 04:49:41;;;;;;;;;;;;;;;9.66;76.56;92249.50;2075546;69;20059;-90
2021/05/22 04:52:07;;;;;;;;;;;;;;;9.67;76.18;92254.53;2075670;69;20136;-93
2021/05/22 04:54:32;;;;;;;;;;;;;;;9.73;76.00;92251.31;2075713;69;20055;-89
2021/05/22 04:56:57;;;;;;;;;;;;;;;9.37;77.55;92273.16;2075526;69;20048;-92
2021/05/22 04:59:23;;;;;;;;;;;;;;;9.66;77.07;92269.19;2076406;69;20078;-86
2021/05/22 05:01:48;;;;;;;;;;;;;;;9.68;75.88;92244.75;2080814;69;20417;-88
2021/05/22 05:04:14;;;;;;;;;;;;;;;9.82;75.94;92233.56;2076089;69;20055;-89
2021/05/22 05:06:39;;;;;;;;;;;;;;;9.88;76.44;92242.34;2075560;69;20060;-91
2021/05/22 05:09:06;;;;;;;;;;;;;;;9.99;75.74;92242.88;2071865;69;20091;-90
2021/05/22 05:11:31;;;;;;;;;;;;;;;10.09;76.02;92235.03;2075510;69;20096;-91
2021/05/22 05:13:57;;;;;;;;;;;;;;;10.00;76.95;92233.13;2075643;69;20056;-93
2021/05/22 05:16:23;;;;;;;;;;;;;;;9.91;76.99;92224.22;2075608;69;20048;-93
2021/05/22 05:18:49;;;;;;;;;;;;;;;10.09;75.84;92218.16;2075466;69;20121;-94
2021/05/22 05:21:14;;;;;;;;;;;;;;;10.04;76.11;92224.91;2075798;69;20088;-93
2021/05/22 05:23:40;;;;;;;;;;;;;;;10.02;73.58;92210.72;2075672;69;20067;-90
2021/05/22 05:26:06;;;;;;;;;;;;;;;9.72;73.21;92218.22;2075645;69;20083;-93
2021/05/22 05:28:31;;;;;;;;;;;;;;;10.09;73.08;92202.00;2075682;69;20656;-93
2021/05/22 05:30:57;;;;;;;;;;;;;;;9.93;73.79;92195.50;2075597;69;20052;-93
2021/05/22 05:33:22;;;;;;;;;;;;;;;9.35;73.33;92193.69;2075724;69;20502;-94
2021/05/22 05:35:49;;;;;;;;;;;;;;;9.40;73.67;92201.72;2075600;69;20068;-90
2021/05/22 05:38:18;;;;;;;;;;;;;;;8.61;78.90;92202.72;2075544;69;20510;-92
2021/05/22 05:40:43;;;;;;;;;;;;;;;9.33;75.95;92194.28;2075547;69;20058;-92
2021/05/22 05:43:13;;;;;;;;;;;;;;;9.72;76.03;92171.16;2075575;69;20048;-92
2021/05/22 05:45:39;;;;;;;;;;;;;;;9.64;75.88;92181.97;2075368;69;20145;-94
2021/05/22 05:48:06;;;;;;;;;;;;;;;9.89;74.95;92190.38;2075541;69;20135;-91
2021/05/22 05:50:32;;;;;;;;;;;;;;;9.90;75.88;92197.47;2075475;69;20048;-94
2021/05/22 05:52:58;;;;;;;;;;;;;;;10.35;74.93;92199.16;2075431;69;20053;-87
2021/05/22 05:55:23;;;;;;;;;;;;;;;10.57;74.18;92211.63;2075443;69;20051;-93
2021/05/22 05:57:50;;;;;;;;;;;;;;;10.59;74.34;92211.75;2075621;69;20183;-90
2021/05/22 06:00:16;;;;;;;;;;;;;;;10.63;74.97;92222.50;2075430;69;20453;-92
2021/05/22 06:02:41;;;;;;;;;;;;;;;10.56;73.13;92224.22;2075528;69;20051;-94
2021/05/22 06:05:07;;;;;;;;;;;;;;;10.73;73.46;92230.72;2075717;69;20501;-92
2021/05/22 06:07:33;;;;;;;;;;;;;;;10.60;72.44;92232.91;2075870;69;20056;-93
2021/05/22 06:09:58;;;;;;;;;;;;;;;10.54;73.93;92221.31;2075694;69;20151;-93
2021/05/22 06:12:24;;;;;;;;;;;;;;;10.15;74.11;92224.09;2075522;69;20052;-93
2021/05/22 06:14:54;;;;;;;;;;;;;;;10.52;73.89;92231.72;2075391;69;20056;-93
2021/05/22 06:17:20;;;;;;;;;;;;;;;10.68;73.86;92222.06;2075497;69;20151;-93
2021/05/22 06:19:46;;;;;;;;;;;;;;;10.82;73.89;92215.72;2075614;69;20536;-94
2021/05/22 06:22:11;;;;;;;;;;;;;;;10.95;73.42;92223.44;2075602;69;20492;-93
2021/05/22 06:24:36;;;;;;;;;;;;;;;10.83;74.33;92222.81;2075680;69;20056;-92
2021/05/22 06:27:02;;;;;;;;;;;;;;;10.94;73.06;92219.88;2075665;69;20052;-93
2021/05/22 06:29:27;;;;;;;;;;;;;;;11.16;70.55;92222.38;2075663;69;20478;-91
2021/05/22 06:31:53;;;;;;;;;;;;;;;10.78;72.34;92218.31;2075715;69;20041;-89
2021/05/22 06:34:18;;;;;;;;;;;;;;;11.05;71.34;92209.16;2075608;69;20056;-91
2021/05/22 06:36:44;;;;;;;;;;;;;;;10.99;69.84;92211.63;2075562;69;20637;-91
2021/05/22 06:39:09;;;;;;;;;;;;;;;10.66;70.12;92201.50;2075880;69;20541;-92
2021/05/22 06:41:35;;;;;;;;;;;;;;;10.75;71.03;92203.41;2075428;69;20106;-93
2021/05/22 06:44:00;;;;;;;;;;;;;;;10.91;70.73;92192.97;2075620;69;20561;-91
2021/05/22 06:48:51;;;;;;;;;;;;;;;11.66;69.69;92206.53;2078770;69;20059;-93
2021/05/22 06:51:17;;;;;;;;;;;;;;;12.26;70.43;92201.63;2079318;69;20476;-94
2021/05/22 06:53:42;;;;;;;;;;;;;;;12.51;69.69;92203.47;2076053;69;20044;-91
2021/05/22 06:56:08;;;;;;;;;;;;;;;12.71;66.70;92195.94;2075673;69;20052;-93
2021/05/22 06:58:33;;;;;;;;;;;;;;;13.25;67.37;92194.09;2075699;69;20215;-94
2021/05/22 07:00:58;;;;;;;;;;;;;;;13.38;67.09;92201.00;2075604;69;20145;-93
2021/05/22 07:03:24;;;;;;;;;;;;;;;13.16;63.43;92195.06;2071995;69;20168;-93
2021/05/22 07:05:50;;;;;;;;;;;;;;;13.71;62.71;92194.59;2075662;69;20418;-93
2021/05/22 07:08:17;;;;;;;;;;;;;;;13.61;62.66;92186.41;2075372;69;20530;-94
2021/05/22 07:10:43;;;;;;;;;;;;;;;13.53;63.74;92188.91;2073277;69;20021;-90
2021/05/22 07:13:09;;;;;;;;;;;;;;;13.65;62.76;92192.25;2080294;69;20040;-92
2021/05/22 07:15:34;;;;;;;;;;;;;;;12.91;61.73;92185.53;2080076;69;20450;-92
2021/05/22 07:18:00;;;;;;;;;;;;;;;13.54;64.32;92195.28;2076632;69;20048;-93
2021/05/22 07:20:25;;;;;;;;;;;;;;;13.67;62.14;92191.59;2075908;69;20441;-91
2021/05/22 07:22:51;;;;;;;;;;;;;;;13.41;61.81;92182.72;2075694;69;20198;-91
2021/05/22 07:25:20;;;;;;;;;;;;;;;13.76;61.20;92178.50;2075613;69;20124;-94
2021/05/22 07:27:48;;;;;;;;;;;;;;;13.52;61.20;92181.78;2075367;69;20063;-90
2021/05/22 07:30:15;;;;;;;;;;;;;;;12.78;59.28;92180.72;2076168;69;20140;-86
2021/05/22 07:32:40;;;;;;;;;;;;;;;13.01;60.35;92184.50;2076267;69;20044;-88
2021/05/22 07:35:07;;;;;;;;;;;;;;;13.52;61.99;92183.91;2076031;69;20071;-91
2021/05/22 07:37:32;;;;;;;;;;;;;;;14.39;57.61;92184.56;2076129;69;20059;-90
2021/05/22 07:39:58;;;;;;;;;;;;;;;13.94;62.05;92187.72;2076080;69;20045;-90
2021/05/22 07:42:27;;;;;;;;;;;;;;;14.74;57.39;92178.09;2075909;69;20480;-90
2021/05/22 07:44:53;;;;;;;;;;;;;;;15.00;57.74;92180.44;2076079;69;20063;-89
2021/05/22 07:47:19;;;;;;;;;;;;;;;14.92;54.66;92180.88;2076222;69;20045;-91
2021/05/22 07:49:44;;;;;;;;;;;;;;;15.05;55.34;92172.81;2076089;69;20044;-87
2021/05/22 07:52:11;;;;;;;;;;;;;;;14.50;53.62;92185.69;2072527;69;20487;-88
2021/05/22 07:54:40;;;;;;;;;;;;;;;13.11;57.07;92179.31;2076030;69;20076;-89
2021/05/22 07:57:07;;;;;;;;;;;;;;;13.87;57.64;92178.25;2076061;69;20117;-91
2021/05/22 07:59:32;;;;;;;;;;;;;;;13.81;55.57;92182.97;2076025;69;20048;-89
2021/05/22 08:02:01;;;;;;;;;;;;;;;13.77;54.45;92185.63;2076055;69;20137;-89
2021/05/22 08:04:27;;;;;;;;;;;;;;;14.25;54.69;92192.50;2076277;69;20054;-89
2021/05/22 08:06:53;;;;;;;;;;;;;;;14.33;53.78;92187.13;2076025;69;20139;-90
2021/05/22 08:09:19;;;;;;;;;;;;;;;14.86;53.71;92182.78;2076094;69;20051;-90
2021/05/22 08:11:45;;;;;;;;;;;;;;;15.29;52.23;92190.69;2075946;69;20048;-89
2021/05/22 08:14:10;;;;;;;;;;;;;;;15.64;51.26;92183.41;2076144;69;20063;-91
2021/05/22 08:16:37;;;;;;;;;;;;;;;14.45;52.01;92186.88;2075855;69;20064;-90
2021/05/22 08:19:03;;;;;;;;;;;;;;;15.45;51.99;92188.44;2076010;69;20125;-90
2021/05/22 08:21:28;;;;;;;;;;;;;;;15.13;50.03;92192.97;2076950;69;20070;-93
2021/05/22 08:23:54;;;;;;;;;;;;;;;15.73;49.66;92194.38;2076979;69;20060;-93
2021/05/22 08:26:21;;;;;;;;;;;;;;;16.00;49.02;92184.63;2076503;69;20048;-91
2021/05/22 08:28:47;;;;;;;;;;;;;;;16.86;50.20;92187.28;2076559;69;20100;-89
2021/05/22 08:31:12;;;;;;;;;;;;;;;16.07;49.97;92182.69;2072627;69;20139;-90
2021/05/22 08:33:38;;;;;;;;;;;;;;;18.04;48.93;92184.81;2076057;69;20049;-90
2021/05/22 08:36:04;;;;;;;;;;;;;;;18.81;46.25;92176.66;2078526;69;20092;-91
2021/05/22 08:38:29;;;;;;;;;;;;;;;19.14;42.96;92175.22;2080019;69;20106;-90
2021/05/22 08:40:56;;;;;;;;;;;;;;;18.66;44.29;92172.72;2075974;69;20548;-90
2021/05/22 08:43:22;;;;;;;;;;;;;;;20.27;44.73;92169.47;2076016;69;20132;-88
2021/05/22 08:45:47;;;;;;;;;;;;;;;19.25;43.12;92161.88;2076049;69;20091;-92
2021/05/22 08:48:14;;;;;;;;;;;;;;;19.14;41.08;92158.09;2076081;69;20059;-89
2021/05/22 08:50:40;;;;;;;;;;;;;;;20.73;40.83;92166.66;2075908;69;20053;-90
2021/05/22 08:53:05;;;;;;;;;;;;;;;21.28;38.00;92175.25;2072230;69;20163;-87
2021/05/22 08:55:31;;;;;;;;;;;;;;;20.51;36.82;92167.03;2075936;69;20045;-89
2021/05/22 08:57:56;;;;;;;;;;;;;;;20.72;38.99;92168.06;2076552;69;20444;-92
2021/05/22 09:00:24;;;;;;;;;;;;;;;21.91;38.05;92173.16;2075988;69;20084;-89
2021/05/22 09:02:50;;;;;;;;;;;;;;;22.89;36.79;92176.16;2076223;69;20056;-96
2021/05/22 09:05:21;;;;;;;;;;;;;;;22.82;35.82;92175.41;2076101;69;20414;-93
2021/05/22 09:07:48;;;;;;;;;;;;;;;23.23;35.93;92170.66;2076099;69;20078;-92
2021/05/22 09:10:18;;;;;;;;;;;;;;;24.29;34.22;92165.28;2075995;69;20107;-94
2021/05/22 09:12:45;;;;;;;;;;;;;;;24.48;33.01;92168.91;2075940;69;20048;-91
2021/05/22 09:15:14;;;;;;;;;;;;;;;21.80;35.70;92165.84;2076017;69;20500;-91
2021/05/22 09:17:47;;;;;;;;;;;;;;;21.27;36.37;92165.22;2075712;69;20060;-92
2021/05/22 09:20:14;;;;;;;;;;;;;;;22.28;35.90;92174.25;2075755;69;20052;-91
2021/05/22 09:22:39;;;;;;;;;;;;;;;21.00;36.89;92167.75;2075941;69;20040;-90
2021/05/22 09:25:06;;;;;;;;;;;;;;;22.19;35.75;92166.28;2075948;69;20055;-87
2021/05/22 09:27:36;;;;;;;;;;;;;;;22.41;34.12;92168.63;2075807;69;20056;-86
2021/05/22 09:30:09;;;;;;;;;;;;;;;21.35;35.30;92165.38;2075715;69;20458;-86
2021/05/22 09:32:35;;;;;;;;;;;;;;;20.55;36.39;92169.22;2075926;69;20060;-88
2021/05/22 09:35:01;;;;;;;;;;;;;;;22.68;34.68;92175.28;2075722;69;20410;-84
2021/05/22 09:37:26;;;;;;;;;;;;;;;19.11;39.95;92155.91;2075696;69;20522;-86
2021/05/22 09:39:53;;;;;;;;;;;;;;;20.36;37.39;92162.47;2072020;69;20136;-84
2021/05/22 09:42:25;;;;;;;;;;;;;;;24.00;32.59;92160.91;2075683;69;20143;-86
2021/05/22 09:44:51;;;;;;;;;;;;;;;21.29;34.99;92159.53;2075733;69;20044;-88
2021/05/22 09:47:17;;;;;;;;;;;;;;;21.38;33.25;92161.09;2075785;69;20139;-86
2021/05/22 09:49:42;;;;;;;;;;;;;;;20.40;35.81;92158.97;2075777;69;20040;-85
2021/05/22 09:52:08;;;;;;;;;;;;;;;22.48;34.88;92158.63;2075641;69;20048;-87
2021/05/22 09:54:40;;;;;;;;;;;;;;;24.62;30.01;92159.56;2075713;69;20085;-87
2021/05/22 09:57:06;;;;;;;;;;;;;;;22.87;33.72;92147.44;2075650;69;20135;-88
2021/05/22 09:59:31;;;;;;;;;;;;;;;23.32;32.35;92154.16;2075749;69;20053;-90
2021/05/22 10:01:58;;;;;;;;;;;;;;;24.85;31.36;92152.34;2075641;69;20059;-86
2021/05/22 10:04:24;;;;;;;;;;;;;;;24.15;31.10;92144.41;2075625;69;20138;-86
2021/05/22 10:06:49;;;;;;;;;;;;;;;22.14;34.16;92145.47;2075778;69;20483;-87
2021/05/22 10:09:17;;;;;;;;;;;;;;;26.58;31.26;92145.19;2075695;69;20044;-85
2021/05/22 10:12:01;;;;;;;;;;;;;;;25.46;28.96;92142.16;2075589;69;20040;-86
2021/05/22 10:14:45;;;;;;;;;;;;;;;27.45;27.27;92142.25;2071900;69;20048;-85
2021/05/22 10:17:13;;;;;;;;;;;;;;;28.19;25.68;92136.28;2075778;69;20048;-82
2021/05/22 10:19:38;;;;;;;;;;;;;;;26.16;29.11;92149.06;2075764;69;20045;-84
2021/05/22 10:22:05;;;;;;;;;;;;;;;27.23;27.17;92143.91;2076581;69;20047;-86
2021/05/22 10:24:31;;;;;;;;;;;;;;;29.39;25.39;92140.19;2079292;69;20059;-86
2021/05/22 10:26:57;;;;;;;;;;;;;;;30.85;23.03;92142.22;2077071;69;20084;-82
2021/05/22 10:29:22;;;;;;;;;;;;;;;32.61;20.36;92146.91;2076625;69;20056;-85
2021/05/22 10:31:48;;;;;;;;;;;;;;;29.63;23.28;92133.22;2076855;69;20044;-87
2021/05/22 10:34:15;;;;;;;;;;;;;;;32.57;22.10;92138.31;2076883;69;20133;-85
2021/05/22 10:36:51;;;;;;;;;;;;;;;33.49;19.56;92134.66;2076582;69;20056;-85
2021/05/22 10:39:35;;;;;;;;;;;;;;;30.71;21.78;92121.50;2076606;69;20087;-84
2021/05/22 10:42:01;;;;;;;;;;;;;;;30.19;21.82;92124.81;2076896;69;20054;-85
2021/05/22 10:44:28;;;;;;;;;;;;;;;30.75;21.75;92133.03;2070285;69;20197;-86
2021/05/22 10:47:12;;;;;;;;;;;;;;;36.50;17.75;92138.84;2056711;69;20494;-83
2021/05/22 10:49:46;;;;;;;;;;;;;;;35.57;16.36;92136.28;2056709;69;20149;-85
2021/05/22 10:52:23;;;;;;;;;;;;;;;36.09;16.72;92137.72;2056462;69;20049;-84
2021/05/22 10:55:08;;;;;;;;;;;;;;;38.35;16.09;92138.56;2063926;69;20059;-84
2021/05/22 10:57:45;;;;;;;;;;;;;;;33.84;17.74;92114.44;2056491;69;20054;-85
2021/05/22 11:00:14;;;;;;;;;;;;;;;37.22;14.33;92127.41;2056473;69;20149;-82
2021/05/22 11:02:42;;;;;;;;;;;;;;;35.99;16.19;92108.88;2056486;69;20101;-84
2021/05/22 11:05:35;;;;;;;;;;;;;;;34.42;16.40;92095.53;2057208;69;20054;-84
2021/05/22 11:08:04;;;;;;;;;;;;;;;41.61;13.18;92114.84;2056364;69;20408;-85
2021/05/22 11:10:49;;;;;;;;;;;;;;;42.68;12.22;92112.00;2054981;69;20046;-84
2021/05/22 11:13:20;;;;;;;;;;;;;;;39.17;13.69;92098.06;2055824;69;20157;-82
2021/05/22 11:15:48;;;;;;;;;;;;;;;32.37;19.46;92077.78;2055722;70;20130;-81
2021/05/22 11:18:23;;;;;;;;;;;;;;;26.23;24.74;92066.09;2068899;69;20047;-81
2021/05/22 11:21:08;;;;;;;;;;;;;;;25.77;24.84;92051.25;2055872;70;20053;-82
2021/05/22 11:23:52;;;;;;;;;;;;;;;34.65;19.07;92063.25;2055828;70;20145;-82
2021/05/22 11:26:37;;;;;;;;;;;;;;;33.92;16.96;92063.81;2055859;69;20141;-83
2021/05/22 11:29:03;;;;;;;;;;;;;;;33.11;18.57;92059.34;2055871;70;20055;-82
2021/05/22 11:31:32;;;;;;;;;;;;;;;36.18;15.19;92059.69;2055787;70;20058;-83
2021/05/22 11:34:30;;;;;;;;;;;;;;;30.57;20.76;92049.94;2055939;70;20050;-83
2021/05/22 11:37:11;;;;;;;;;;;;;;;29.78;21.59;92043.72;2041986;70;20433;-85
2021/05/22 11:39:37;;;;;;;;;;;;;;;28.35;22.95;92049.94;2041813;70;20086;-82
2021/05/22 11:42:23;;;;;;;;;;;;;;;27.42;24.25;92049.06;2041889;70;20051;-84
2021/05/22 11:44:52;;;;;;;;;;;;;;;25.85;25.86;92047.63;2043299;69;20062;-82
2021/05/22 11:47:17;;;;;;;;;;;;;;;26.39;24.21;92045.03;2042391;70;20047;-82
2021/05/22 11:49:43;;;;;;;;;;;;;;;26.40;25.61;92044.31;2045154;70;20376;-88
2021/05/22 11:52:24;;;;;;;;;;;;;;;31.48;20.70;92049.78;2045119;70;20063;-85
2021/05/22 11:54:50;;;;;;;;;;;;;;;32.23;20.18;92049.06;2045113;70;20060;-87
2021/05/22 11:57:18;;;;;;;;;;;;;;;35.31;15.49;92059.06;2045196;70;20125;-85
2021/05/22 11:59:44;;;;;;;;;;;;;;;30.79;19.60;92052.31;2042320;70;20051;-85
2021/05/22 12:02:09;;;;;;;;;;;;;;;30.61;19.83;92053.47;2045022;70;20165;-87
2021/05/22 12:04:39;;;;;;;;;;;;;;;32.68;18.53;92053.50;2045038;70;20065;-87
2021/05/22 12:07:05;;;;;;;;;;;;;;;35.11;16.44;92042.41;2041874;69;20057;-86
2021/05/22 12:09:32;;;;;;;;;;;;;;;35.86;15.12;92053.75;2044951;70;20051;-86
2021/05/22 12:12:04;;;;;;;;;;;;;;;39.05;14.19;92055.34;2044716;70;20560;-85
2021/05/22 12:14:36;;;;;;;;;;;;;;;33.68;16.72;92047.19;2052584;69;20050;-85
2021/05/22 12:17:02;;;;;;;;;;;;;;;34.58;16.10;92045.25;2052533;69;20091;-85
2021/05/22 12:19:32;;;;;;;;;;;;;;;33.90;17.64;92044.16;2052485;69;20043;-85
2021/05/22 12:21:57;;;;;;;;;;;;;;;30.16;20.12;92042.19;2052219;70;20136;-85
2021/05/22 12:24:23;;;;;;;;;;;;;;;33.48;17.79;92043.50;2052398;70;20046;-85
2021/05/22 12:26:51;;;;;;;;;;;;;;;34.00;15.78;92034.34;2052474;69;20119;-84
2021/05/22 12:29:17;;;;;;;;;;;;;;;36.46;14.90;92042.31;2049164;70;20600;-85
2021/05/22 12:31:53;;;;;;;;;;;;;;;30.51;18.40;92029.75;2052417;70;20145;-86
2021/05/22 12:34:29;;;;;;;;;;;;;;;26.57;22.62;92028.31;2049156;69;20056;-83
2021/05/22 12:36:59;;;;;;;;;;;;;;;32.68;18.24;92033.81;2052286;70;20538;-85
2021/05/22 12:39:29;;;;;;;;;;;;;;;35.61;16.84;92039.53;2052704;70;20054;-85
2021/05/22 12:41:55;;;;;;;;;;;;;;;34.31;16.72;92033.16;2052339;70;20082;-85
2021/05/22 12:44:22;;;;;;;;;;;;;;;37.76;15.07;92035.84;2050370;70;20471;-85
2021/05/22 12:47:14;;;;;;;;;;;;;;;34.43;16.27;92029.06;2052280;70;20097;-87
2021/05/22 12:49:52;;;;;;;;;;;;;;;38.22;13.11;92023.16;2052424;69;20062;-86
2021/05/22 12:52:18;;;;;;;;;;;;;;;33.34;16.64;92012.63;2052185;70;20478;-85
2021/05/22 12:54:46;;;;;;;;;;;;;;;38.31;13.73;92032.25;2052050;70;20054;-85